createdAt,value
2019-03-04T00:01:34.396Z,3.00
2019-03-04T00:04:05.542Z,2.97
2019-03-04T00:06:37.016Z,2.97
2019-03-04T00:09:08.086Z,3.53
2019-03-04T00:11:41.217Z,3.03
2019-03-04T00:14:12.395Z,3.20
2019-03-04T00:16:43.805Z,3.07
2019-03-04T00:19:15.011Z,3.40
2019-03-04T00:21:47.881Z,2.90
2019-03-04T00:24:19.000Z,3.83
2019-03-04T00:26:50.272Z,3.83
2019-03-04T00:29:21.519Z,3.07
2019-03-04T00:31:52.791Z,3.53
2019-03-04T00:34:23.877Z,3.37
2019-03-04T00:36:54.995Z,3.27
2019-03-04T00:39:26.126Z,3.37
2019-03-04T00:41:57.652Z,3.50
2019-03-04T00:44:28.700Z,3.40
2019-03-04T00:47:00.047Z,3.30
2019-03-04T00:49:31.278Z,3.47
2019-03-04T00:52:02.844Z,3.20
2019-03-04T00:54:33.889Z,3.40
2019-03-04T00:57:05.336Z,3.40
2019-03-04T00:59:36.418Z,3.57
2019-03-04T01:02:07.728Z,3.50
2019-03-04T01:04:38.824Z,3.93
2019-03-04T01:07:10.223Z,3.50
2019-03-04T01:09:41.277Z,3.50
2019-03-04T01:12:12.932Z,3.30
2019-03-04T01:14:44.125Z,3.77
2019-03-04T01:17:15.640Z,4.00
2019-03-04T01:19:46.803Z,3.20
2019-03-04T01:22:18.763Z,3.43
2019-03-04T01:24:49.928Z,3.40
2019-03-04T01:27:21.337Z,2.80
2019-03-04T01:29:52.385Z,3.70
2019-03-04T01:32:23.716Z,3.83
2019-03-04T01:34:54.896Z,3.97
2019-03-04T01:37:26.213Z,4.23
2019-03-04T01:39:57.294Z,3.60
2019-03-04T01:42:28.968Z,4.07
2019-03-04T01:45:00.317Z,4.20
2019-03-04T01:47:31.621Z,3.87
2019-03-04T01:50:02.703Z,4.00
2019-03-04T01:52:34.228Z,3.67
2019-03-04T01:55:05.619Z,3.60
2019-03-04T01:57:37.006Z,3.73
2019-03-04T02:00:11.163Z,3.27
2019-03-04T02:02:43.214Z,3.50
2019-03-04T02:05:14.710Z,3.90
2019-03-04T02:07:46.690Z,4.03
2019-03-04T02:10:19.684Z,3.97
2019-03-04T02:12:50.956Z,3.90
2019-03-04T02:15:22.039Z,3.87
2019-03-04T02:17:53.354Z,3.67
2019-03-04T02:20:24.626Z,3.70
2019-03-04T02:22:56.048Z,3.40
2019-03-04T02:25:58.736Z,3.67
2019-03-04T02:28:30.183Z,3.87
2019-03-04T02:31:01.231Z,3.47
2019-03-04T02:33:32.794Z,3.00
2019-03-04T02:36:03.979Z,2.83
2019-03-04T02:38:35.759Z,3.50
2019-03-04T02:41:06.866Z,3.60
2019-03-04T02:43:38.272Z,3.67
2019-03-04T02:46:09.435Z,3.33
2019-03-04T02:48:40.791Z,3.23
2019-03-04T02:51:11.897Z,3.70
2019-03-04T02:53:43.274Z,3.37
2019-03-04T02:56:15.993Z,3.47
2019-03-04T02:58:47.507Z,3.30
2019-03-04T03:01:18.593Z,3.60
2019-03-04T03:03:49.996Z,3.10
2019-03-04T03:06:21.170Z,3.10
2019-03-04T03:08:52.798Z,3.80
2019-03-04T03:11:23.920Z,3.43
2019-03-04T03:13:55.488Z,3.33
2019-03-04T03:16:26.573Z,2.70
2019-03-04T03:18:57.880Z,3.80
2019-03-04T03:21:28.984Z,3.30
2019-03-04T03:24:00.374Z,3.17
2019-03-04T03:26:31.415Z,3.40
2019-03-04T03:29:02.973Z,3.47
2019-03-04T03:31:34.173Z,3.17
2019-03-04T03:34:06.534Z,3.47
2019-03-04T03:36:37.678Z,3.27
2019-03-04T03:39:08.875Z,3.73
2019-03-04T03:41:40.033Z,3.30
2019-03-04T03:44:11.272Z,3.80
2019-03-04T03:46:42.510Z,3.30
2019-03-04T03:49:13.972Z,3.80
2019-03-04T03:51:45.061Z,4.33
2019-03-04T03:54:16.573Z,3.80
2019-03-04T03:56:47.803Z,4.00
2019-03-04T03:59:19.280Z,3.50
2019-03-04T04:01:50.461Z,3.73
2019-03-04T04:04:21.766Z,3.90
2019-03-04T04:06:52.864Z,3.80
2019-03-04T04:09:24.260Z,3.97
2019-03-04T04:11:55.647Z,3.70
2019-03-04T04:14:29.214Z,3.97
2019-03-04T04:17:00.055Z,3.23
2019-03-04T04:19:31.511Z,3.70
2019-03-04T04:22:02.631Z,3.73
2019-03-04T04:24:33.990Z,3.90
2019-03-04T04:27:05.090Z,4.03
2019-03-04T04:29:38.332Z,3.70
2019-03-04T04:32:09.386Z,3.63
2019-03-04T04:34:40.733Z,3.70
2019-03-04T04:37:11.797Z,3.60
2019-03-04T04:39:43.027Z,3.97
2019-03-04T04:42:14.230Z,3.70
2019-03-04T04:44:45.506Z,3.10
2019-03-04T04:47:16.549Z,3.17
2019-03-04T04:49:48.000Z,3.80
2019-03-04T04:52:19.096Z,3.40
2019-03-04T04:54:50.506Z,3.90
2019-03-04T04:57:21.707Z,4.17
2019-03-04T04:59:53.240Z,3.47
2019-03-04T05:02:24.364Z,3.47
2019-03-04T05:04:55.794Z,4.40
2019-03-04T05:07:26.968Z,4.03
2019-03-04T05:09:58.433Z,3.97
2019-03-04T05:12:29.520Z,4.47
2019-03-04T05:15:04.074Z,3.40
2019-03-04T05:17:35.322Z,3.70
2019-03-04T05:20:09.320Z,3.47
2019-03-04T05:22:40.655Z,3.70
2019-03-04T05:25:13.146Z,3.60
2019-03-04T05:27:45.748Z,3.93
2019-03-04T05:30:18.788Z,3.90
2019-03-04T05:32:49.846Z,3.63
2019-03-04T05:35:21.224Z,3.60
2019-03-04T05:37:52.374Z,3.80
2019-03-04T05:40:23.708Z,3.90
2019-03-04T05:42:54.815Z,3.50
2019-03-04T05:45:26.207Z,3.97
2019-03-04T05:47:57.288Z,3.53
2019-03-04T05:50:28.616Z,4.17
2019-03-04T05:52:59.681Z,4.00
2019-03-04T05:55:30.980Z,3.87
2019-03-04T05:58:02.461Z,3.43
2019-03-04T06:00:38.753Z,3.77
2019-03-04T06:03:11.301Z,3.80
2019-03-04T06:05:42.733Z,3.70
2019-03-04T06:08:14.087Z,3.70
2019-03-04T06:10:45.319Z,4.47
2019-03-04T06:13:16.390Z,3.77
2019-03-04T06:15:47.774Z,3.90
2019-03-04T06:18:19.200Z,3.40
2019-03-04T06:20:51.110Z,5.30
2019-03-04T06:23:22.217Z,3.57
2019-03-04T06:25:53.630Z,4.13
2019-03-04T06:28:24.672Z,3.67
2019-03-04T06:30:56.015Z,3.90
2019-03-04T06:33:27.061Z,4.00
2019-03-04T06:35:58.421Z,4.20
2019-03-04T06:38:29.616Z,5.03
2019-03-04T06:41:01.206Z,4.10
2019-03-04T06:43:32.332Z,4.50
2019-03-04T06:46:03.701Z,4.10
2019-03-04T06:48:34.812Z,4.53
2019-03-04T06:51:08.050Z,3.87
2019-03-04T06:54:10.973Z,4.10
2019-03-04T06:57:12.076Z,3.77
2019-03-04T07:00:33.592Z,3.77
2019-03-04T07:03:11.814Z,3.40
2019-03-04T07:05:52.805Z,3.30
2019-03-04T07:09:02.432Z,3.37
2019-03-04T07:11:35.249Z,3.13
2019-03-04T07:14:11.592Z,3.47
2019-03-04T07:16:42.761Z,3.70
2019-03-04T07:19:22.373Z,3.50
2019-03-04T07:21:53.424Z,3.30
2019-03-04T07:24:24.707Z,2.50
2019-03-04T07:26:55.915Z,2.80
2019-03-04T07:29:27.364Z,2.90
2019-03-04T07:31:58.790Z,2.60
2019-03-04T07:34:30.153Z,2.23
2019-03-04T07:37:01.311Z,2.73
2019-03-04T07:39:33.586Z,2.10
2019-03-04T07:42:04.741Z,2.50
2019-03-04T07:44:37.415Z,2.67
2019-03-04T07:47:08.728Z,2.40
2019-03-04T07:49:40.210Z,2.50
2019-03-04T07:52:11.263Z,2.70
2019-03-04T07:54:42.752Z,2.97
2019-03-04T07:57:13.833Z,2.70
2019-03-04T07:59:45.240Z,2.13
2019-03-04T08:02:16.466Z,3.00
2019-03-04T08:04:48.000Z,2.90
2019-03-04T08:07:39.577Z,2.60
2019-03-04T08:11:07.506Z,2.40
2019-03-04T08:13:54.779Z,2.60
2019-03-04T08:16:25.991Z,2.37
2019-03-04T08:18:57.244Z,2.47
2019-03-04T08:21:28.739Z,2.60
2019-03-04T08:23:59.989Z,2.47
2019-03-04T08:26:31.364Z,2.50
2019-03-04T08:29:02.555Z,2.47
2019-03-04T08:31:35.509Z,2.60
2019-03-04T08:34:06.655Z,2.20
2019-03-04T08:36:38.268Z,2.60
2019-03-04T08:39:09.931Z,2.80
2019-03-04T08:41:41.816Z,2.97
2019-03-04T08:44:12.921Z,3.40
2019-03-04T08:46:44.519Z,3.17
2019-03-04T08:49:15.600Z,3.50
2019-03-04T08:51:46.924Z,3.20
2019-03-04T08:54:18.033Z,3.00
2019-03-04T08:56:49.308Z,3.43
2019-03-04T08:59:20.386Z,3.30
2019-03-04T09:01:51.798Z,2.60
2019-03-04T09:04:22.878Z,2.83
2019-03-04T09:06:54.514Z,2.70
2019-03-04T09:09:25.585Z,2.53
2019-03-04T09:11:57.107Z,2.60
2019-03-04T09:14:29.290Z,2.90
2019-03-04T09:17:00.630Z,2.03
2019-03-04T09:19:32.773Z,2.50
2019-03-04T09:22:04.037Z,2.20
2019-03-04T09:24:35.136Z,1.87
2019-03-04T09:27:07.688Z,1.80
2019-03-04T09:29:38.870Z,1.53
2019-03-04T09:32:10.343Z,1.60
2019-03-04T09:34:41.484Z,1.40
2019-03-04T09:37:13.452Z,1.30
2019-03-04T09:39:44.530Z,1.17
2019-03-04T09:42:21.378Z,1.33
2019-03-04T09:44:53.007Z,1.50
2019-03-04T09:47:24.480Z,1.47
2019-03-04T09:49:55.594Z,1.30
2019-03-04T09:52:27.072Z,1.70
2019-03-04T09:54:58.736Z,1.20
2019-03-04T09:57:29.906Z,1.23
2019-03-04T10:00:02.050Z,1.30
2019-03-04T10:02:41.078Z,1.40
2019-03-04T10:05:37.400Z,1.30
2019-03-04T10:08:20.438Z,1.10
2019-03-04T10:11:37.344Z,1.20
2019-03-04T10:14:57.319Z,1.10
2019-03-04T10:18:33.463Z,1.60
2019-03-04T10:21:13.567Z,1.40
2019-03-04T10:24:26.816Z,1.20
2019-03-04T10:27:27.460Z,1.23
2019-03-04T10:30:38.888Z,1.53
2019-03-04T10:33:58.512Z,1.90
2019-03-04T10:37:08.436Z,1.40
2019-03-04T10:40:08.282Z,1.30
2019-03-04T10:43:17.446Z,1.40
2019-03-04T10:46:35.668Z,1.30
2019-03-04T10:49:06.818Z,1.33
2019-03-04T10:51:38.882Z,1.40
2019-03-04T10:54:10.226Z,1.50
2019-03-04T10:56:42.440Z,1.50
2019-03-04T10:59:13.710Z,1.30
2019-03-04T11:01:45.122Z,1.57
2019-03-04T11:04:16.278Z,1.40
2019-03-04T11:06:48.300Z,1.50
2019-03-04T11:09:19.550Z,1.60
2019-03-04T11:11:50.945Z,1.53
2019-03-04T11:14:22.071Z,1.40
2019-03-04T11:16:55.264Z,1.60
2019-03-04T11:19:26.425Z,1.53
2019-03-04T11:21:57.718Z,1.50
2019-03-04T11:24:28.868Z,1.90
2019-03-04T11:27:00.066Z,1.30
2019-03-04T11:29:31.577Z,1.60
2019-03-04T11:32:03.363Z,1.30
2019-03-04T11:34:35.040Z,1.43
2019-03-04T11:37:06.548Z,1.40
2019-03-04T11:40:02.695Z,1.70
2019-03-04T11:42:34.850Z,1.50
2019-03-04T11:45:09.076Z,1.47
2019-03-04T11:47:40.620Z,1.43
2019-03-04T11:50:13.804Z,1.50
2019-03-04T11:52:45.266Z,1.40
2019-03-04T11:55:17.503Z,1.40
2019-03-04T11:57:48.995Z,1.67
2019-03-04T12:00:44.773Z,1.40
2019-03-04T12:03:16.156Z,1.33
2019-03-04T12:05:48.140Z,1.50
2019-03-04T12:08:19.464Z,1.77
2019-03-04T12:10:50.695Z,1.60
2019-03-04T12:13:23.266Z,1.97
2019-03-04T12:15:56.016Z,1.57
2019-03-04T12:18:27.644Z,1.60
2019-03-04T12:20:58.830Z,1.40
2019-03-04T12:23:30.237Z,1.47
2019-03-04T12:26:01.566Z,1.60
2019-03-04T12:28:33.270Z,1.50
2019-03-04T12:31:05.008Z,1.40
2019-03-04T12:33:36.664Z,1.60
2019-03-04T12:36:19.056Z,1.63
2019-03-04T12:38:51.446Z,1.53
2019-03-04T12:41:22.702Z,1.77
2019-03-04T12:43:54.225Z,1.70
2019-03-04T12:46:26.946Z,1.70
2019-03-04T12:48:58.274Z,1.50
2019-03-04T12:51:29.417Z,1.50
2019-03-04T12:54:00.866Z,1.57
2019-03-04T12:56:31.988Z,1.50
2019-03-04T12:59:03.383Z,1.63
2019-03-04T13:01:34.693Z,1.73
2019-03-04T13:04:06.149Z,1.60
2019-03-04T13:06:37.315Z,1.70
2019-03-04T13:09:14.612Z,1.70
2019-03-04T13:11:42.794Z,1.80
2019-03-04T13:14:14.431Z,1.73
2019-03-04T13:16:45.729Z,1.70
2019-03-04T13:19:17.373Z,1.67
2019-03-04T13:21:48.566Z,1.50
2019-03-04T13:24:19.857Z,1.60
2019-03-04T13:26:52.312Z,1.63
2019-03-04T13:29:23.672Z,1.70
2019-03-04T13:31:54.904Z,1.67
2019-03-04T13:34:26.397Z,1.70
2019-03-04T13:36:57.473Z,1.80
2019-03-04T13:39:29.161Z,1.60
2019-03-04T13:42:00.402Z,1.60
2019-03-04T13:44:31.852Z,1.87
2019-03-04T13:47:02.912Z,1.67
2019-03-04T13:49:34.383Z,1.83
2019-03-04T13:52:05.456Z,2.33
2019-03-04T13:54:37.871Z,1.70
2019-03-04T13:57:09.365Z,1.97
2019-03-04T13:59:40.771Z,1.77
2019-03-04T14:02:11.931Z,1.67
2019-03-04T14:04:43.370Z,1.60
2019-03-04T14:07:14.517Z,1.60
2019-03-04T14:09:47.211Z,2.03
2019-03-04T14:12:18.379Z,2.30
2019-03-04T14:14:49.797Z,1.73
2019-03-04T14:17:20.880Z,1.90
2019-03-04T14:19:52.400Z,1.83
2019-03-04T14:22:23.756Z,2.10
2019-03-04T14:24:55.288Z,1.90
2019-03-04T14:27:26.408Z,2.13
2019-03-04T14:29:57.890Z,2.20
2019-03-04T14:32:28.948Z,1.60
2019-03-04T14:35:01.257Z,1.60
2019-03-04T14:37:32.412Z,1.70
2019-03-04T14:40:03.894Z,2.33
2019-03-04T14:42:35.276Z,1.97
2019-03-04T14:45:08.482Z,1.90
2019-03-04T14:47:39.597Z,1.93
2019-03-04T14:50:13.788Z,1.77
2019-03-04T14:52:45.387Z,1.90
2019-03-04T14:55:18.771Z,1.60
2019-03-04T14:57:50.058Z,2.20
2019-03-04T15:00:28.532Z,1.90
2019-03-04T15:02:59.752Z,2.07
2019-03-04T15:05:31.481Z,2.10
2019-03-04T15:08:02.654Z,1.77
2019-03-04T15:10:34.025Z,1.63
2019-03-04T15:13:05.328Z,1.60
2019-03-04T15:15:36.920Z,1.83
2019-03-04T15:18:08.464Z,1.80
2019-03-04T15:20:40.179Z,2.10
2019-03-04T15:23:11.498Z,1.50
2019-03-04T15:25:43.718Z,1.53
2019-03-04T15:28:19.762Z,1.40
2019-03-04T15:30:56.667Z,1.60
2019-03-04T15:33:28.144Z,1.30
2019-03-04T15:36:00.294Z,1.70
2019-03-04T15:38:31.707Z,1.50
2019-03-04T15:41:03.340Z,1.50
2019-03-04T15:43:34.820Z,1.50
2019-03-04T15:46:07.070Z,1.27
2019-03-04T15:48:38.318Z,1.40
2019-03-04T15:51:10.176Z,1.27
2019-03-04T15:53:43.445Z,1.43
2019-03-04T15:56:14.597Z,1.20
2019-03-04T15:58:46.019Z,1.30
2019-03-04T16:01:17.716Z,1.10
2019-03-04T16:03:48.996Z,1.10
2019-03-04T16:06:20.471Z,1.37
2019-03-04T16:08:51.572Z,1.10
2019-03-04T16:11:23.608Z,1.80
2019-03-04T16:13:56.216Z,1.50
2019-03-04T16:16:28.065Z,1.63
2019-03-04T16:18:59.385Z,1.30
2019-03-04T16:21:31.013Z,1.30
2019-03-04T16:24:02.324Z,1.20
2019-03-04T16:26:33.850Z,1.40
2019-03-04T16:29:05.760Z,1.67
2019-03-04T16:31:37.290Z,1.50
2019-03-04T16:34:08.712Z,1.63
2019-03-04T16:36:40.388Z,1.50
2019-03-04T16:39:12.193Z,1.60
2019-03-04T16:41:43.839Z,1.40
2019-03-04T16:44:15.557Z,1.60
2019-03-04T16:46:46.922Z,1.33
2019-03-04T16:49:18.514Z,1.30
2019-03-04T16:51:50.324Z,1.47
2019-03-04T16:54:21.434Z,1.90
2019-03-04T16:56:53.042Z,1.57
2019-03-04T16:59:24.407Z,1.43
2019-03-04T17:01:56.032Z,1.60
2019-03-04T17:04:27.132Z,1.60
2019-03-04T17:06:58.837Z,1.50
2019-03-04T17:09:30.493Z,2.00
2019-03-04T17:12:01.845Z,1.70
2019-03-04T17:14:33.376Z,1.87
2019-03-04T17:17:23.890Z,1.50
2019-03-04T17:19:55.472Z,1.40
2019-03-04T17:22:27.330Z,1.50
2019-03-04T17:24:58.945Z,1.60
2019-03-04T17:27:30.522Z,1.83
2019-03-04T17:30:01.828Z,1.90
2019-03-04T17:32:34.866Z,1.90
2019-03-04T17:35:06.892Z,1.40
2019-03-04T17:37:38.391Z,1.70
2019-03-04T17:40:11.328Z,1.53
2019-03-04T17:42:42.836Z,1.70
2019-03-04T17:45:16.623Z,1.33
2019-03-04T17:47:48.198Z,1.40
2019-03-04T17:50:27.174Z,1.40
2019-03-04T17:52:58.642Z,1.43
2019-03-04T17:55:30.166Z,1.83
2019-03-04T17:58:01.573Z,1.30
2019-03-04T18:00:34.614Z,1.50
2019-03-04T18:03:06.327Z,1.50
2019-03-04T18:05:37.635Z,1.27
2019-03-04T18:08:09.134Z,1.80
2019-03-04T18:10:40.359Z,1.80
2019-03-04T18:13:13.127Z,1.57
2019-03-04T18:15:44.560Z,1.40
2019-03-04T18:18:15.970Z,1.40
2019-03-04T18:20:47.372Z,2.10
2019-03-04T18:23:18.928Z,3.23
2019-03-04T18:25:56.876Z,5.00
2019-03-04T18:28:40.767Z,1.60
2019-03-04T18:31:32.778Z,2.60
2019-03-04T18:34:37.182Z,1.63
2019-03-04T18:37:33.179Z,2.20
2019-03-04T18:40:20.060Z,1.60
2019-03-04T18:43:21.241Z,1.80
2019-03-04T18:46:18.230Z,4.60
2019-03-04T18:48:57.092Z,2.23
2019-03-04T18:51:32.773Z,1.63
2019-03-04T18:54:18.986Z,1.60
2019-03-04T18:56:50.356Z,1.97
2019-03-04T18:59:21.466Z,1.40
2019-03-04T19:01:53.040Z,1.47
2019-03-04T19:04:24.340Z,1.17
2019-03-04T19:06:57.359Z,1.50
2019-03-04T19:09:31.012Z,1.70
2019-03-04T19:12:02.858Z,1.70
2019-03-04T19:14:34.130Z,1.20
2019-03-04T19:17:07.762Z,2.00
2019-03-04T19:19:38.535Z,1.50
2019-03-04T19:22:09.862Z,1.40
2019-03-04T19:24:41.012Z,1.63
2019-03-04T19:27:12.858Z,1.80
2019-03-04T19:29:44.070Z,1.60
2019-03-04T19:32:15.462Z,1.47
2019-03-04T19:34:46.656Z,1.50
2019-03-04T19:37:18.162Z,1.60
2019-03-04T19:39:49.367Z,1.33
2019-03-04T19:42:20.780Z,1.47
2019-03-04T19:44:52.041Z,1.53
2019-03-04T19:47:23.713Z,1.40
2019-03-04T19:49:55.938Z,1.50
2019-03-04T19:52:27.948Z,1.70
2019-03-04T19:54:59.512Z,1.60
2019-03-04T19:57:31.356Z,1.57
2019-03-04T20:00:03.126Z,1.50
2019-03-04T20:02:35.839Z,1.50
2019-03-04T20:05:08.269Z,1.70
2019-03-04T20:07:41.199Z,1.97
2019-03-04T20:10:13.423Z,2.07
2019-03-04T20:12:45.543Z,1.60
2019-03-04T20:15:21.358Z,1.70
2019-03-04T20:17:52.959Z,1.80
2019-03-04T20:20:24.289Z,1.83
2019-03-04T20:22:56.028Z,1.60
2019-03-04T20:25:27.361Z,1.90
2019-03-04T20:27:58.866Z,1.60
2019-03-04T20:30:30.372Z,1.77
2019-03-04T20:33:01.985Z,1.53
2019-03-04T20:35:33.484Z,1.50
2019-03-04T20:38:05.553Z,1.87
2019-03-04T20:40:37.050Z,1.50
2019-03-04T20:43:09.235Z,1.63
2019-03-04T20:45:40.474Z,2.60
2019-03-04T20:48:12.207Z,1.50
2019-03-04T20:50:43.847Z,1.40
2019-03-04T20:53:17.090Z,1.67
2019-03-04T20:55:48.537Z,1.40
2019-03-04T20:58:20.457Z,1.90
2019-03-04T21:00:52.212Z,1.67
2019-03-04T21:03:23.874Z,1.60
2019-03-04T21:05:55.200Z,1.70
2019-03-04T21:08:28.958Z,1.63
2019-03-04T21:11:00.286Z,1.70
2019-03-04T21:13:35.589Z,1.70
2019-03-04T21:16:05.084Z,2.10
2019-03-04T21:18:36.756Z,1.90
2019-03-04T21:21:10.398Z,1.67
2019-03-04T21:23:45.833Z,1.70
2019-03-04T21:26:21.023Z,1.90
2019-03-04T21:29:44.590Z,1.50
2019-03-04T21:32:42.965Z,1.67
2019-03-04T21:36:06.870Z,1.60
2019-03-04T21:38:38.091Z,1.40
2019-03-04T21:41:40.383Z,1.40
2019-03-04T21:44:52.528Z,1.50
2019-03-04T21:47:31.273Z,1.53
2019-03-04T21:50:02.623Z,1.40
2019-03-04T21:52:58.999Z,1.63
2019-03-04T21:55:38.052Z,1.60
2019-03-04T21:58:09.590Z,2.23
2019-03-04T22:00:42.749Z,1.60
2019-03-04T22:03:26.507Z,1.60
2019-03-04T22:05:58.382Z,2.50
2019-03-04T22:08:29.835Z,1.93
2019-03-04T22:11:01.109Z,1.57
2019-03-04T22:13:33.357Z,1.30
2019-03-04T22:16:04.750Z,1.87
2019-03-04T22:18:36.287Z,1.60
2019-03-04T22:21:16.292Z,1.53
2019-03-04T22:23:40.684Z,1.57
2019-03-04T22:26:11.852Z,1.50
2019-03-04T22:28:43.288Z,1.90
2019-03-04T22:31:14.903Z,1.80
2019-03-04T22:33:46.375Z,1.90
2019-03-04T22:36:17.553Z,1.60
2019-03-04T22:38:49.288Z,1.27
2019-03-04T22:41:21.747Z,1.70
2019-03-04T22:43:53.442Z,1.53
2019-03-04T22:46:24.843Z,1.53
2019-03-04T22:48:56.140Z,1.90
2019-03-04T22:51:27.363Z,1.30
2019-03-04T22:53:59.076Z,1.80
2019-03-04T22:56:30.523Z,1.90
2019-03-04T22:59:02.036Z,1.90
2019-03-04T23:01:43.109Z,1.70
2019-03-04T23:04:53.265Z,1.67
2019-03-04T23:07:33.196Z,1.73
2019-03-04T23:10:45.913Z,1.90
2019-03-04T23:13:40.345Z,1.57
2019-03-04T23:16:14.238Z,1.47
2019-03-04T23:18:45.572Z,2.03
2019-03-04T23:21:17.444Z,1.60
2019-03-04T23:23:48.884Z,1.40
2019-03-04T23:26:20.246Z,1.90
2019-03-04T23:28:51.403Z,1.43
2019-03-04T23:31:22.537Z,1.80
2019-03-04T23:33:53.689Z,1.60
2019-03-04T23:36:25.040Z,1.63
2019-03-04T23:38:56.172Z,1.57
2019-03-04T23:41:27.635Z,1.53
2019-03-04T23:43:58.708Z,1.60
2019-03-04T23:46:29.870Z,1.70
2019-03-04T23:49:00.993Z,1.50
2019-03-04T23:51:32.414Z,1.50
2019-03-04T23:54:03.490Z,1.63
2019-03-04T23:56:35.014Z,2.13
2019-03-04T23:59:06.292Z,1.43
